Time;durP1;ratioP1;P1;durP2;ratioP2;P2;SDS_P1;SDS_P2;PMS_P1;PMS_P2;Temp;Humidity;BMP_temperature;BMP_pressure;BME280_temperature;BME280_humidity;BME280_pressure;Samples;Min_cycle;Max_cycle;Signal;HPM_P1;HPM_P2
2022/09/03 00:01:40;;;;;;;8.20;7.40;;;14.20;1.00;;;;;;6272335;22;20454;-57
2022/09/03 00:04:36;;;;;;;7.00;6.50;;;14.20;1.00;;;;;;6272363;22;20386;-55
2022/09/03 00:07:14;;;;;;;7.50;7.00;;;14.20;1.00;;;;;;6221819;22;20391;-58
2022/09/03 00:09:55;;;;;;;8.23;7.60;;;14.20;1.00;;;;;;6272414;22;20379;-57
2022/09/03 00:12:25;;;;;;;7.27;6.57;;;14.20;1.00;;;;;;6272919;22;20387;-56
2022/09/03 00:14:57;;;;;;;7.60;6.90;;;14.20;1.00;;;;;;6272423;22;20380;-54
2022/09/03 00:17:28;;;;;;;7.20;6.60;;;14.20;1.00;;;;;;6272620;22;20458;-59
2022/09/03 00:20:17;;;;;;;7.00;6.50;;;14.20;1.00;;;;;;6272426;22;20774;-52
2022/09/03 00:22:48;;;;;;;7.30;6.70;;;14.20;1.00;;;;;;6272774;22;20720;-57
2022/09/03 00:25:39;;;;;;;7.30;6.77;;;14.20;1.00;;;;;;6272437;22;20434;-55
2022/09/03 00:28:11;;;;;;;7.73;7.10;;;14.20;1.00;;;;;;6272325;22;20425;-57
2022/09/03 00:30:39;;;;;;;6.60;6.10;;;14.10;1.00;;;;;;6272655;22;20473;-57
2022/09/03 00:33:12;;;;;;;7.20;6.20;;;14.00;1.00;;;;;;6271798;22;20386;-56
2022/09/03 00:35:52;;;;;;;6.50;6.00;;;14.00;1.00;;;;;;6272599;22;20692;-56
2022/09/03 00:38:21;;;;;;;7.57;6.40;;;13.90;1.00;;;;;;6272587;22;20421;-56
2022/09/03 00:41:05;;;;;;;6.40;5.90;;;13.80;1.00;;;;;;6272370;22;20382;-58
2022/09/03 00:43:41;;;;;;;5.70;5.13;;;13.70;1.00;;;;;;6272376;22;20368;-57
2022/09/03 00:46:18;;;;;;;5.80;5.20;;;13.60;1.00;;;;;;6272756;22;20362;-55
2022/09/03 00:49:05;;;;;;;6.30;5.70;;;13.50;1.00;;;;;;6272714;22;20368;-56
2022/09/03 00:51:42;;;;;;;5.43;4.93;;;13.40;1.00;;;;;;6272949;22;21324;-58
2022/09/03 00:54:42;;;;;;;5.80;5.27;;;13.30;1.00;;;;;;6272176;22;20666;-58
2022/09/03 00:57:27;;;;;;;5.77;5.27;;;13.30;1.00;;;;;;6272775;22;20378;-56
2022/09/03 01:00:05;;;;;;;5.70;5.17;;;13.10;1.00;;;;;;6271658;22;21049;-55
2022/09/03 01:03:07;;;;;;;5.60;5.20;;;13.00;1.00;;;;;;6271517;22;20372;-56
2022/09/03 01:06:20;;;;;;;7.03;5.40;;;12.90;1.00;;;;;;6271706;22;20356;-54
2022/09/03 01:08:52;;;;;;;7.07;6.47;;;12.90;1.00;;;;;;6272042;22;20375;-56
2022/09/03 01:11:50;;;;;;;7.10;6.60;;;12.80;1.00;;;;;;6272080;22;20379;-53
2022/09/03 01:14:59;;;;;;;6.67;6.07;;;12.70;1.00;;;;;;6272336;22;20449;-55
2022/09/03 01:17:46;;;;;;;6.20;5.50;;;12.60;1.00;;;;;;6272143;22;20426;-58
2022/09/03 01:20:31;;;;;;;5.30;4.93;;;12.60;1.00;;;;;;6272009;22;20361;-58
2022/09/03 01:23:23;;;;;;;5.40;4.90;;;12.50;1.00;;;;;;6272217;22;20841;-59
2022/09/03 01:26:15;;;;;;;5.30;4.90;;;12.50;1.00;;;;;;6272004;22;20460;-56
2022/09/03 01:28:56;;;;;;;6.20;5.00;;;12.40;1.00;;;;;;6271986;22;20370;-57
2022/09/03 01:31:41;;;;;;;5.90;4.60;;;12.40;1.00;;;;;;6271084;22;20370;-58
2022/09/03 01:34:31;;;;;;;5.43;4.90;;;12.30;1.00;;;;;;6271921;22;20354;-56
2022/09/03 01:37:24;;;;;;;5.00;4.60;;;12.30;4.30;;;;;;6271529;22;20352;-57
2022/09/03 01:40:02;;;;;;;5.03;4.60;;;12.30;15.50;;;;;;6272053;22;20399;-57
2022/09/03 01:42:53;;;;;;;5.27;4.87;;;12.20;20.60;;;;;;6271775;22;20371;-57
2022/09/03 01:45:21;;;;;;;5.43;5.03;;;12.20;26.90;;;;;;6271956;22;20380;-58
2022/09/03 01:47:51;;;;;;;5.10;4.70;;;12.10;24.80;;;;;;6272062;22;20426;-54
2022/09/03 01:50:34;;;;;;;6.20;5.70;;;12.10;28.10;;;;;;6272092;22;20368;-55
2022/09/03 01:53:25;;;;;;;6.23;5.70;;;12.10;29.30;;;;;;6271448;22;20451;-58
2022/09/03 01:55:59;;;;;;;6.90;6.30;;;12.10;36.50;;;;;;6271919;22;20407;-57
2022/09/03 01:58:55;;;;;;;7.87;6.10;;;12.20;44.80;;;;;;6271947;22;20406;-57
2022/09/03 02:01:28;;;;;;;7.23;6.63;;;12.20;46.10;;;;;;6271312;22;20499;-57
2022/09/03 02:03:58;;;;;;;6.07;5.57;;;12.10;44.70;;;;;;6271909;22;20409;-57
2022/09/03 02:06:24;;;;;;;5.43;5.03;;;12.10;45.60;;;;;;6270233;22;20451;-53
2022/09/03 02:08:50;;;;;;;5.97;5.47;;;12.10;45.70;;;;;;6271883;22;20406;-55
2022/09/03 02:11:16;;;;;;;6.40;5.20;;;12.00;43.90;;;;;;6271512;22;20355;-58
2022/09/03 02:13:47;;;;;;;5.53;5.13;;;11.90;41.70;;;;;;6271706;22;20199;-57
2022/09/03 02:16:19;;;;;;;5.53;5.03;;;11.90;44.80;;;;;;6271812;22;20137;-55
2022/09/03 02:18:49;;;;;;;5.40;5.00;;;11.90;47.20;;;;;;6271591;22;20765;-55
2022/09/03 02:21:18;;;;;;;6.03;5.53;;;11.80;48.00;;;;;;6271248;22;20501;-55
2022/09/03 02:23:44;;;;;;;5.80;5.40;;;11.80;53.60;;;;;;6271604;22;20383;-58
2022/09/03 02:26:12;;;;;;;6.10;5.60;;;11.80;64.40;;;;;;6271767;22;20658;-59
2022/09/03 02:28:38;;;;;;;6.53;5.93;;;11.80;66.50;;;;;;6271480;22;20371;-56
2022/09/03 02:31:04;;;;;;;6.83;6.23;;;11.70;63.10;;;;;;6271195;22;20429;-56
2022/09/03 02:33:34;;;;;;;6.93;6.33;;;11.60;62.40;;;;;;6271559;22;20145;-58
2022/09/03 02:36:02;;;;;;;6.77;6.27;;;11.60;74.20;;;;;;6271652;22;20425;-54
2022/09/03 02:38:28;;;;;;;7.10;6.50;;;11.60;87.70;;;;;;6271628;22;20515;-55
2022/09/03 02:40:54;;;;;;;7.30;6.70;;;11.60;90.50;;;;;;6271329;22;20399;-55
2022/09/03 02:43:31;;;;;;;6.53;5.93;;;11.60;90.30;;;;;;6273207;22;20137;-55
2022/09/03 02:46:02;;;;;;;6.90;6.40;;;11.50;92.80;;;;;;6273303;22;20451;-55
2022/09/03 02:48:28;;;;;;;6.93;6.33;;;11.50;94.30;;;;;;6273691;22;20367;-54
2022/09/03 02:50:53;;;;;;;7.40;6.80;;;11.50;96.60;;;;;;6273635;22;20410;-57
2022/09/03 02:53:19;;;;;;;7.13;6.43;;;11.40;99.90;;;;;;6273466;22;20167;-55
2022/09/03 02:55:45;;;;;;;7.30;6.60;;;11.40;99.90;;;;;;6273417;22;20577;-57
2022/09/03 02:58:10;;;;;;;7.00;6.40;;;11.30;99.90;;;;;;6273416;22;20175;-55
2022/09/03 03:00:36;;;;;;;7.57;6.90;;;11.30;99.90;;;;;;6272456;22;20176;-58
2022/09/03 03:03:03;;;;;;;7.90;7.20;;;11.30;99.90;;;;;;6273360;22;20585;-56
2022/09/03 03:05:43;;;;;;;6.77;6.27;;;11.30;99.90;;;;;;6273304;22;20375;-56
2022/09/03 03:08:09;;;;;;;7.73;6.90;;;11.30;99.90;;;;;;6273275;22;20371;-56
2022/09/03 03:10:34;;;;;;;7.57;6.97;;;11.30;99.90;;;;;;6273065;22;20750;-59
2022/09/03 03:13:00;;;;;;;7.57;6.90;;;11.20;99.90;;;;;;6273273;22;20690;-55
2022/09/03 03:15:27;;;;;;;7.10;6.50;;;11.20;99.90;;;;;;6273192;22;20163;-55
2022/09/03 03:17:55;;;;;;;7.30;6.60;;;11.10;99.90;;;;;;6273067;22;20201;-57
2022/09/03 03:20:21;;;;;;;6.93;6.30;;;11.10;99.90;;;;;;6246068;22;20855;-53
2022/09/03 03:22:47;;;;;;;7.23;6.53;;;11.10;99.90;;;;;;6273300;22;20435;-52
2022/09/03 03:25:12;;;;;;;6.80;6.30;;;11.00;99.90;;;;;;6271351;22;20161;-55
2022/09/03 03:27:40;;;;;;;6.83;6.33;;;10.90;99.90;;;;;;6271789;22;20235;-58
2022/09/03 03:30:08;;;;;;;7.20;6.60;;;10.90;99.90;;;;;;6272612;22;20147;-54
2022/09/03 03:32:35;;;;;;;7.37;6.47;;;10.90;99.90;;;;;;6272943;22;20429;-54
2022/09/03 03:35:00;;;;;;;9.20;8.27;;;10.80;99.90;;;;;;6273326;22;20356;-56
2022/09/03 03:37:26;;;;;;;7.30;6.70;;;10.80;99.90;;;;;;6273228;22;20436;-55
2022/09/03 03:39:51;;;;;;;7.90;7.30;;;10.80;99.90;;;;;;6272666;22;20180;-57
2022/09/03 03:42:17;;;;;;;8.00;7.40;;;10.80;99.90;;;;;;6273014;22;20145;-58
2022/09/03 03:44:43;;;;;;;8.37;7.67;;;10.70;99.90;;;;;;6272910;22;20141;-56
2022/09/03 03:47:08;;;;;;;8.63;7.30;;;10.70;99.90;;;;;;6272987;22;20155;-57
2022/09/03 03:49:34;;;;;;;7.87;7.27;;;10.70;99.90;;;;;;6272931;22;20137;-56
2022/09/03 03:52:01;;;;;;;7.33;6.73;;;10.70;99.90;;;;;;6272944;22;20362;-54
2022/09/03 03:54:27;;;;;;;7.27;6.67;;;10.60;99.90;;;;;;6272825;22;20156;-53
2022/09/03 03:56:53;;;;;;;7.67;7.03;;;10.60;99.90;;;;;;6272916;22;20410;-57
2022/09/03 03:59:18;;;;;;;8.37;7.70;;;10.60;99.90;;;;;;6272656;22;20467;-57
2022/09/03 04:01:44;;;;;;;7.37;6.67;;;10.60;99.90;;;;;;6270672;22;20223;-55
2022/09/03 04:04:09;;;;;;;8.43;7.83;;;10.60;99.90;;;;;;6272966;22;20165;-56
2022/09/03 04:06:35;;;;;;;7.93;7.33;;;10.60;99.90;;;;;;6273115;22;20148;-57
2022/09/03 04:09:00;;;;;;;8.07;7.37;;;10.50;99.90;;;;;;6272764;22;20156;-55
2022/09/03 04:11:26;;;;;;;7.90;7.20;;;10.50;99.90;;;;;;6271329;22;20160;-58
2022/09/03 04:13:52;;;;;;;8.23;7.53;;;10.50;99.90;;;;;;6272909;22;20641;-56
2022/09/03 04:16:20;;;;;;;8.50;7.03;;;10.40;99.90;;;;;;6272887;22;20195;-57
2022/09/03 04:18:48;;;;;;;8.43;7.67;;;10.40;99.90;;;;;;6272674;22;20435;-55
2022/09/03 04:21:19;;;;;;;8.30;7.60;;;10.40;99.90;;;;;;6270932;22;20395;-58
2022/09/03 04:23:46;;;;;;;9.27;8.40;;;10.30;99.90;;;;;;6272963;22;20402;-58
2022/09/03 04:26:15;;;;;;;8.60;7.83;;;10.30;99.90;;;;;;6272727;22;20390;-58
2022/09/03 04:28:41;;;;;;;9.10;6.97;;;10.30;99.90;;;;;;6272549;22;20406;-56
2022/09/03 04:31:09;;;;;;;8.53;7.60;;;10.30;99.90;;;;;;6271834;22;20371;-53
2022/09/03 04:33:37;;;;;;;8.23;7.47;;;10.30;99.90;;;;;;6270756;22;20912;-51
2022/09/03 04:36:15;;;;;;;8.80;7.60;;;10.30;99.90;;;;;;6272536;22;20369;-53
2022/09/03 04:38:43;;;;;;;8.73;7.97;;;10.30;99.90;;;;;;6272806;22;20465;-56
2022/09/03 04:41:11;;;;;;;8.33;7.60;;;10.30;99.90;;;;;;6272394;22;20364;-56
2022/09/03 04:43:37;;;;;;;9.47;8.57;;;10.20;99.90;;;;;;6272309;22;20394;-53
2022/09/03 04:46:06;;;;;;;8.37;7.67;;;10.20;99.90;;;;;;6272357;22;20364;-58
2022/09/03 04:48:33;;;;;;;8.57;7.77;;;10.20;99.90;;;;;;6272844;22;21213;-57
2022/09/03 04:51:04;;;;;;;8.57;7.67;;;10.20;99.90;;;;;;6272701;22;20376;-52
2022/09/03 04:53:35;;;;;;;8.67;7.87;;;10.20;99.90;;;;;;6272505;22;20397;-58
2022/09/03 04:56:02;;;;;;;8.53;7.77;;;10.30;99.90;;;;;;6272362;22;20425;-53
2022/09/03 04:58:28;;;;;;;8.53;7.83;;;10.20;99.90;;;;;;6272386;22;20419;-55
2022/09/03 05:00:54;;;;;;;8.50;7.50;;;10.20;99.90;;;;;;6271384;22;20395;-55
2022/09/03 05:03:20;;;;;;;8.47;7.67;;;10.20;99.90;;;;;;6272282;22;20403;-55
2022/09/03 05:05:55;;;;;;;8.97;8.27;;;10.20;99.90;;;;;;6272072;22;20136;-56
2022/09/03 05:08:21;;;;;;;10.70;8.03;;;10.20;99.90;;;;;;6272338;22;20363;-56
2022/09/03 05:10:48;;;;;;;8.83;8.03;;;10.10;99.90;;;;;;6272404;22;20383;-57
2022/09/03 05:13:13;;;;;;;8.90;8.20;;;10.20;99.90;;;;;;6270401;22;20480;-58
2022/09/03 05:15:41;;;;;;;8.80;7.63;;;10.20;99.90;;;;;;6272273;22;20480;-54
2022/09/03 05:18:06;;;;;;;8.50;7.80;;;10.20;99.90;;;;;;6272055;22;20279;-57
2022/09/03 05:20:32;;;;;;;8.73;7.93;;;10.20;99.90;;;;;;6272428;22;20481;-55
2022/09/03 05:23:04;;;;;;;8.30;7.60;;;10.30;99.90;;;;;;6272501;22;20132;-55
2022/09/03 05:25:33;;;;;;;8.67;7.77;;;10.30;99.90;;;;;;6271955;22;20133;-51
2022/09/03 05:28:00;;;;;;;8.60;7.83;;;10.40;99.90;;;;;;6272339;22;20357;-55
2022/09/03 05:30:26;;;;;;;9.43;7.70;;;10.40;99.90;;;;;;6271777;22;20401;-57
2022/09/03 05:32:51;;;;;;;8.57;7.80;;;10.40;99.90;;;;;;6271319;22;20371;-55
2022/09/03 05:35:17;;;;;;;7.83;7.13;;;10.40;99.90;;;;;;6272345;22;20150;-55
2022/09/03 05:37:44;;;;;;;7.37;6.77;;;10.40;99.90;;;;;;6272030;22;20268;-52
2022/09/03 05:40:10;;;;;;;7.77;7.07;;;10.40;99.90;;;;;;6272034;22;20155;-57
2022/09/03 05:42:37;;;;;;;8.30;7.60;;;10.40;99.90;;;;;;6272086;22;20379;-53
2022/09/03 05:45:09;;;;;;;8.67;7.87;;;10.50;99.90;;;;;;6272143;22;20360;-56
2022/09/03 05:47:36;;;;;;;12.13;7.27;;;10.50;99.90;;;;;;6271843;22;20962;-60
2022/09/03 05:50:02;;;;;;;7.63;6.93;;;10.60;99.90;;;;;;6272265;22;20713;-57
2022/09/03 05:52:27;;;;;;;6.90;6.30;;;10.60;99.90;;;;;;6272235;22;20371;-57
2022/09/03 05:54:53;;;;;;;7.30;6.70;;;10.70;99.90;;;;;;6271841;22;20356;-57
2022/09/03 05:57:19;;;;;;;7.83;7.13;;;10.80;99.90;;;;;;6271310;22;20215;-57
2022/09/03 05:59:44;;;;;;;7.30;6.60;;;10.90;99.90;;;;;;6271860;22;20252;-57
2022/09/03 06:02:10;;;;;;;7.67;6.10;;;10.90;99.90;;;;;;6271669;22;20141;-56
2022/09/03 06:04:35;;;;;;;10.57;7.57;;;11.00;99.90;;;;;;6270775;22;20149;-54
2022/09/03 06:07:01;;;;;;;7.00;6.40;;;11.00;99.90;;;;;;6272140;22;20144;-56
2022/09/03 06:09:26;;;;;;;7.07;6.57;;;11.10;99.90;;;;;;6271828;22;20235;-59
2022/09/03 06:11:53;;;;;;;7.67;6.93;;;11.10;99.90;;;;;;6271701;22;20160;-58
2022/09/03 06:14:19;;;;;;;6.60;6.10;;;11.20;99.90;;;;;;6271802;22;20226;-55
2022/09/03 06:16:48;;;;;;;6.70;6.10;;;11.30;99.90;;;;;;6271361;22;20647;-56
2022/09/03 06:19:14;;;;;;;6.73;6.17;;;11.40;99.90;;;;;;6273854;22;20799;-56
2022/09/03 06:21:42;;;;;;;6.27;5.70;;;11.40;94.90;;;;;;6274021;22;20359;-57
2022/09/03 06:24:13;;;;;;;5.70;5.20;;;11.50;89.90;;;;;;6273222;22;20879;-55
2022/09/03 06:26:39;;;;;;;5.97;5.40;;;11.60;75.80;;;;;;6274204;22;20400;-56
2022/09/03 06:29:05;;;;;;;5.90;5.40;;;11.70;68.70;;;;;;6273415;22;20375;-57
2022/09/03 06:31:31;;;;;;;5.60;5.10;;;11.80;58.60;;;;;;6273675;22;20263;-55
2022/09/03 06:33:57;;;;;;;5.80;5.30;;;11.90;54.60;;;;;;6271967;22;20576;-56
2022/09/03 06:36:25;;;;;;;5.20;4.70;;;12.10;38.70;;;;;;6273998;22;20475;-54
2022/09/03 06:38:53;;;;;;;5.90;5.30;;;12.20;21.90;;;;;;6273612;22;20423;-56
2022/09/03 06:41:23;;;;;;;5.03;4.63;;;12.20;14.20;;;;;;6272503;22;20355;-55
2022/09/03 06:43:54;;;;;;;7.47;4.90;;;12.40;7.80;;;;;;6272821;22;20363;-55
2022/09/03 06:46:22;;;;;;;4.87;4.47;;;12.60;1.00;;;;;;6273565;22;20639;-58
2022/09/03 06:48:49;;;;;;;4.60;4.30;;;12.70;1.00;;;;;;6273395;22;20408;-56
2022/09/03 06:51:18;;;;;;;5.13;4.70;;;12.70;1.00;;;;;;6273684;22;20383;-54
2022/09/03 06:53:49;;;;;;;5.07;4.67;;;12.80;1.00;;;;;;6271869;22;20438;-54
2022/09/03 06:56:17;;;;;;;4.70;4.30;;;12.90;1.00;;;;;;6272099;22;20815;-58
2022/09/03 06:58:48;;;;;;;4.97;4.47;;;13.00;1.00;;;;;;6272471;22;20886;-56
2022/09/03 07:01:16;;;;;;;5.00;4.40;;;13.10;1.00;;;;;;6272437;22;20364;-56
2022/09/03 07:03:43;;;;;;;4.67;4.00;;;13.20;1.00;;;;;;6272911;22;20509;-56
2022/09/03 07:06:12;;;;;;;4.90;4.50;;;13.30;1.00;;;;;;6272943;22;20376;-57
2022/09/03 07:08:38;;;;;;;4.63;4.23;;;13.50;1.00;;;;;;6270704;22;20400;-55
2022/09/03 07:11:10;;;;;;;4.40;4.03;;;13.70;1.00;;;;;;6273070;22;20443;-54
2022/09/03 07:13:38;;;;;;;4.90;4.50;;;13.90;1.00;;;;;;6270614;22;20424;-58
2022/09/03 07:16:12;;;;;;;5.07;4.73;;;14.00;1.00;;;;;;6271905;22;20398;-57
2022/09/03 07:18:39;;;;;;;4.90;4.60;;;14.00;1.00;;;;;;6271389;22;20444;-55
2022/09/03 07:21:08;;;;;;;4.90;4.50;;;14.10;1.00;;;;;;6272498;22;20387;-58
2022/09/03 07:23:35;;;;;;;5.17;4.67;;;14.20;1.00;;;;;;6271112;22;20376;-56
2022/09/03 07:26:06;;;;;;;4.60;4.20;;;14.30;1.00;;;;;;6272253;22;20370;-59
2022/09/03 07:28:35;;;;;;;4.50;4.10;;;14.40;1.00;;;;;;6271284;22;20872;-55
2022/09/03 07:31:10;;;;;;;4.40;4.00;;;14.50;1.00;;;;;;6271323;22;20363;-58
2022/09/03 07:33:36;;;;;;;7.60;4.00;;;14.60;1.00;;;;;;6272030;22;20355;-58
2022/09/03 07:36:12;;;;;;;5.23;4.27;;;14.80;1.00;;;;;;6272574;22;20839;-57
2022/09/03 07:38:39;;;;;;;4.40;4.10;;;14.90;1.00;;;;;;6272317;22;20411;-58
2022/09/03 07:41:07;;;;;;;4.50;4.10;;;15.10;1.00;;;;;;6272442;22;20353;-58
2022/09/03 07:43:42;;;;;;;4.63;4.23;;;15.20;99.90;;;;;;6272105;22;20383;-57
2022/09/03 07:46:11;;;;;;;4.40;4.10;;;15.40;99.90;;;;;;6272488;22;20405;-56
2022/09/03 07:48:40;;;;;;;4.53;3.70;;;15.50;99.90;;;;;;6273074;22;20350;-57
2022/09/03 07:51:07;;;;;;;4.43;4.03;;;15.60;99.90;;;;;;6271640;22;20359;-53
2022/09/03 07:53:33;;;;;;;4.43;4.13;;;15.80;4.40;;;;;;6272716;22;21034;-58
2022/09/03 07:56:07;;;;;;;4.70;4.20;;;16.00;1.00;;;;;;6271796;22;20533;-56
2022/09/03 07:58:34;;;;;;;6.97;4.23;;;16.20;1.00;;;;;;6271398;22;20413;-56
2022/09/03 08:01:08;;;;;;;4.90;4.50;;;16.40;99.90;;;;;;6271769;22;20403;-58
2022/09/03 08:03:34;;;;;;;4.57;4.17;;;16.70;1.00;;;;;;6272598;22;20358;-58
2022/09/03 08:06:02;;;;;;;5.40;4.50;;;16.90;1.00;;;;;;6272539;22;20358;-56
2022/09/03 08:08:28;;;;;;;4.40;4.10;;;17.10;1.00;;;;;;6272346;22;20394;-55
2022/09/03 08:10:54;;;;;;;5.03;4.57;;;17.40;1.00;;;;;;6273014;22;20361;-57
2022/09/03 08:13:19;;;;;;;4.47;4.10;;;17.50;99.90;;;;;;6272934;22;20419;-57
2022/09/03 08:15:55;;;;;;;5.10;4.70;;;17.70;99.90;;;;;;6272901;22;20156;-57
2022/09/03 08:18:21;;;;;;;5.03;4.63;;;18.00;1.00;;;;;;6272555;22;20197;-57
2022/09/03 08:20:47;;;;;;;4.97;4.67;;;18.10;1.00;;;;;;6273094;22;20443;-57
2022/09/03 08:23:13;;;;;;;5.00;4.47;;;18.20;1.00;;;;;;6272784;22;20406;-58
2022/09/03 08:25:39;;;;;;;5.07;4.70;;;18.50;1.00;;;;;;6272955;22;20148;-58
2022/09/03 08:28:04;;;;;;;5.40;5.00;;;18.80;1.00;;;;;;6272568;22;20359;-57
2022/09/03 08:30:30;;;;;;;4.87;4.57;;;19.10;1.00;;;;;;6272512;22;20593;-57
2022/09/03 08:32:56;;;;;;;4.80;4.30;;;19.50;1.00;;;;;;6272737;22;20154;-57
2022/09/03 08:35:22;;;;;;;5.03;4.67;;;19.70;99.90;;;;;;6272472;22;20142;-55
2022/09/03 08:37:50;;;;;;;4.60;4.27;;;19.90;99.90;;;;;;6271664;22;20158;-58
2022/09/03 08:40:16;;;;;;;4.97;4.67;;;20.30;99.90;;;;;;6272519;22;20148;-58
2022/09/03 08:43:05;;;;;;;5.00;4.60;;;20.60;99.90;;;;;;6272617;22;20374;-57
2022/09/03 08:45:34;;;;;;;4.53;4.13;;;20.90;99.90;;;;;;6272440;22;20347;-58
2022/09/03 08:48:14;;;;;;;5.20;4.80;;;21.40;99.90;;;;;;6272350;22;20875;-58
2022/09/03 08:50:45;;;;;;;4.63;4.23;;;21.80;99.90;;;;;;6272424;22;20355;-59
2022/09/03 08:53:44;;;;;;;4.77;4.37;;;22.50;99.90;;;;;;6272528;22;20358;-58
2022/09/03 08:56:13;;;;;;;4.77;4.40;;;23.20;99.90;;;;;;6262222;22;20381;-60
2022/09/03 08:58:43;;;;;;;4.93;4.63;;;24.00;99.90;;;;;;6271096;22;20605;-59
2022/09/03 09:01:14;;;;;;;5.07;4.77;;;24.70;99.90;;;;;;6272343;22;20379;-59
2022/09/03 09:04:05;;;;;;;5.23;4.93;;;25.40;99.90;;;;;;6272648;22;20379;-59
2022/09/03 09:06:59;;;;;;;5.13;4.73;;;26.20;99.90;;;;;;6225075;22;20792;-59
2022/09/03 09:09:56;;;;;;;4.57;4.27;;;27.00;99.90;;;;;;6271578;22;20447;-59
2022/09/03 09:12:42;;;;;;;4.90;4.50;;;27.70;99.90;;;;;;6257461;22;20391;-59
2022/09/03 09:15:08;;;;;;;5.07;4.77;;;27.90;99.90;;;;;;6271445;22;20364;-58
2022/09/03 09:17:54;;;;;;;5.70;5.20;;;28.20;99.90;;;;;;6271072;22;20484;-59
2022/09/03 09:20:42;;;;;;;5.13;4.83;;;28.60;99.90;;;;;;6271373;22;20593;-59
2022/09/03 09:23:25;;;;;;;4.97;4.43;;;29.10;99.90;;;;;;6271433;22;20364;-59
2022/09/03 09:25:54;;;;;;;4.80;4.50;;;29.40;99.90;;;;;;6271509;22;20454;-59
2022/09/03 09:28:29;;;;;;;5.80;5.07;;;29.80;99.90;;;;;;6270567;22;20377;-59
2022/09/03 09:30:56;;;;;;;4.97;4.67;;;30.10;99.90;;;;;;6271916;22;20364;-59
2022/09/03 09:33:24;;;;;;;5.10;4.70;;;30.40;99.90;;;;;;6272168;22;20406;-60
2022/09/03 09:35:49;;;;;;;5.17;4.77;;;30.30;99.90;;;;;;6272187;22;20375;-58
2022/09/03 09:38:27;;;;;;;5.50;5.10;;;30.40;99.90;;;;;;6271131;22;20411;-58
2022/09/03 09:40:55;;;;;;;5.17;4.87;;;30.60;99.90;;;;;;6270482;22;20141;-58
2022/09/03 09:43:21;;;;;;;5.53;5.03;;;30.40;99.90;;;;;;6270807;22;20729;-58
2022/09/03 09:45:49;;;;;;;6.10;5.70;;;30.70;99.90;;;;;;6271645;22;20490;-59
2022/09/03 09:48:31;;;;;;;5.20;4.90;;;31.20;99.90;;;;;;6270286;22;20175;-59
2022/09/03 09:51:05;;;;;;;5.00;4.70;;;31.40;99.90;;;;;;6271571;22;20380;-59
2022/09/03 09:53:31;;;;;;;4.93;4.63;;;31.50;99.90;;;;;;6270699;22;20438;-59
2022/09/03 09:55:57;;;;;;;4.90;4.40;;;31.70;99.90;;;;;;6271876;22;20506;-59
2022/09/03 09:58:29;;;;;;;5.17;4.87;;;31.90;99.90;;;;;;6270857;22;20267;-58
2022/09/03 10:01:02;;;;;;;4.93;4.63;;;31.90;99.90;;;;;;6270232;22;20190;-58
2022/09/03 10:03:31;;;;;;;5.40;5.03;;;31.80;99.90;;;;;;6271255;22;20358;-59
2022/09/03 10:06:52;;;;;;;5.10;4.70;;;31.30;99.90;;;;;;6270280;22;20800;-58
2022/09/03 10:08:47;;;;;;;5.07;4.77;;;31.40;99.90;;;;;;6269829;22;20372;-57
2022/09/03 10:11:13;;;;;;;5.67;5.17;;;31.80;99.90;;;;;;6270499;22;20368;-58
2022/09/03 10:13:47;;;;;;;4.77;4.43;;;31.70;99.90;;;;;;6270186;22;20379;-59
2022/09/03 10:16:21;;;;;;;5.40;5.10;;;32.20;99.90;;;;;;6270718;22;20147;-58
2022/09/03 10:19:05;;;;;;;5.60;5.23;;;32.00;99.90;;;;;;6270692;22;20465;-57
2022/09/03 10:21:45;;;;;;;5.23;4.93;;;32.60;99.90;;;;;;6270088;22;20363;-58
2022/09/03 10:24:29;;;;;;;5.07;4.80;;;32.80;99.90;;;;;;6271523;22;20834;-59
2022/09/03 10:26:57;;;;;;;5.20;4.90;;;33.10;99.90;;;;;;6269702;22;20424;-58
2022/09/03 10:29:28;;;;;;;5.23;4.97;;;33.10;99.90;;;;;;6271572;22;20363;-58
2022/09/03 10:32:11;;;;;;;4.80;4.60;;;33.00;99.90;;;;;;6270792;22;20462;-59
2022/09/03 10:34:41;;;;;;;5.23;4.87;;;33.30;99.90;;;;;;6270442;22;20366;-59
2022/09/03 10:37:20;;;;;;;5.40;5.10;;;33.80;99.90;;;;;;6271300;22;20383;-58
2022/09/03 10:40:04;;;;;;;5.53;5.30;;;33.50;99.90;;;;;;6270889;22;20996;-58
2022/09/03 10:42:41;;;;;;;5.60;5.23;;;32.70;99.90;;;;;;6271102;22;20363;-58
2022/09/03 10:45:31;;;;;;;6.20;5.43;;;33.20;99.90;;;;;;6270956;22;20370;-59
2022/09/03 10:48:09;;;;;;;5.70;5.40;;;33.60;99.90;;;;;;6271897;22;20514;-58
2022/09/03 10:51:02;;;;;;;5.00;4.80;;;33.90;99.90;;;;;;6271800;22;20409;-58
2022/09/03 10:53:51;;;;;;;5.40;5.20;;;33.80;99.90;;;;;;6271625;22;20398;-58
2022/09/03 10:56:31;;;;;;;5.83;5.57;;;33.30;99.90;;;;;;6271441;22;20359;-59
2022/09/03 10:59:41;;;;;;;6.43;6.10;;;33.30;99.90;;;;;;6271526;22;20741;-59
2022/09/03 11:02:35;;;;;;;5.93;5.53;;;33.10;99.90;;;;;;6271652;22;20680;-58
2022/09/03 11:05:28;;;;;;;7.60;7.20;;;32.60;99.90;;;;;;6272462;22;20360;-59
2022/09/03 11:08:15;;;;;;;5.70;5.40;;;31.50;99.90;;;;;;6273649;22;20425;-59
2022/09/03 11:10:49;;;;;;;7.60;7.20;;;30.70;99.90;;;;;;6273596;22;20359;-58
2022/09/03 11:13:30;;;;;;;7.47;7.17;;;30.00;99.90;;;;;;6273457;22;20355;-58
2022/09/03 11:16:00;;;;;;;7.83;7.40;;;29.90;99.90;;;;;;6273554;22;20391;-59
2022/09/03 11:18:43;;;;;;;7.53;7.17;;;30.30;99.90;;;;;;6272875;22;20753;-57
2022/09/03 11:21:13;;;;;;;7.40;7.10;;;31.40;99.90;;;;;;6273551;22;20374;-56
2022/09/03 11:23:49;;;;;;;7.10;6.60;;;32.50;99.90;;;;;;6273490;22;20371;-58
2022/09/03 11:26:18;;;;;;;6.70;6.40;;;33.50;99.90;;;;;;6272953;22;20358;-58
2022/09/03 11:29:14;;;;;;;7.00;6.60;;;33.90;99.90;;;;;;6273216;22;20372;-58
2022/09/03 11:32:09;;;;;;;7.00;6.70;;;32.80;99.90;;;;;;6273140;22;20391;-59
2022/09/03 11:34:46;;;;;;;6.90;6.50;;;31.60;99.90;;;;;;6273148;22;20849;-58
2022/09/03 11:37:22;;;;;;;7.03;6.73;;;32.10;99.90;;;;;;6273261;22;20409;-58
2022/09/03 11:40:18;;;;;;;6.97;6.67;;;31.90;99.90;;;;;;6272941;22;20936;-58
2022/09/03 11:42:44;;;;;;;6.63;6.33;;;32.10;99.90;;;;;;6272512;22;20374;-58
2022/09/03 11:45:31;;;;;;;7.10;6.80;;;32.80;99.90;;;;;;6272826;22;20368;-59
2022/09/03 11:47:57;;;;;;;6.67;6.37;;;33.50;99.90;;;;;;6273008;22;20412;-59
2022/09/03 11:50:28;;;;;;;7.37;6.77;;;34.00;99.90;;;;;;6273145;22;20363;-59
2022/09/03 11:53:08;;;;;;;4.90;4.70;;;34.70;99.90;;;;;;6272772;22;20418;-59
2022/09/03 11:55:48;;;;;;;4.50;4.30;;;35.40;99.90;;;;;;6273104;22;20359;-59
2022/09/03 11:58:25;;;;;;;5.07;4.83;;;35.20;99.90;;;;;;6272294;22;20658;-59
2022/09/03 12:00:53;;;;;;;5.10;4.70;;;35.70;99.90;;;;;;6271957;22;20363;-59
2022/09/03 12:03:27;;;;;;;5.57;5.27;;;34.90;99.90;;;;;;6271183;22;20434;-59
2022/09/03 12:06:23;;;;;;;5.30;4.90;;;35.10;99.90;;;;;;6271086;22;20395;-59
2022/09/03 12:09:24;;;;;;;4.93;4.73;;;35.20;99.90;;;;;;6272437;22;20853;-59
2022/09/03 12:12:22;;;;;;;5.60;5.30;;;34.90;99.90;;;;;;6203172;22;20482;-59
2022/09/03 12:15:17;;;;;;;5.03;4.57;;;35.30;99.90;;;;;;6223849;22;20406;-58
2022/09/03 12:18:20;;;;;;;5.40;5.03;;;35.20;99.90;;;;;;6272599;22;20426;-59
2022/09/03 12:20:57;;;;;;;5.20;5.00;;;35.60;99.90;;;;;;6272431;22;20363;-59
2022/09/03 12:23:31;;;;;;;5.27;4.87;;;36.00;99.90;;;;;;6271746;22;20366;-59
2022/09/03 12:26:05;;;;;;;5.60;5.23;;;36.00;99.90;;;;;;6271766;22;20359;-58
2022/09/03 12:28:35;;;;;;;5.20;5.00;;;35.60;99.90;;;;;;6271460;22;20888;-59
2022/09/03 12:31:20;;;;;;;5.83;5.43;;;35.90;99.90;;;;;;6271471;22;20359;-59
2022/09/03 12:33:54;;;;;;;6.00;5.70;;;35.50;99.90;;;;;;6272098;22;20405;-58
2022/09/03 12:36:21;;;;;;;5.83;5.53;;;33.40;99.90;;;;;;6272446;22;20360;-59
2022/09/03 12:38:47;;;;;;;6.43;6.03;;;32.90;99.90;;;;;;6268000;22;20488;-59
2022/09/03 12:41:29;;;;;;;5.90;5.50;;;32.40;99.90;;;;;;6272271;22;21009;-59
2022/09/03 12:43:58;;;;;;;5.63;5.33;;;31.70;99.90;;;;;;6272418;22;20462;-59
2022/09/03 12:46:26;;;;;;;5.60;5.30;;;31.40;99.90;;;;;;6271954;22;20916;-59
2022/09/03 12:48:57;;;;;;;5.77;5.47;;;31.10;99.90;;;;;;6271991;22;20411;-59
2022/09/03 12:51:23;;;;;;;5.03;4.83;;;30.60;99.90;;;;;;6272107;22;20355;-59
2022/09/03 12:53:51;;;;;;;6.90;6.60;;;30.00;99.90;;;;;;6270742;22;20377;-59
2022/09/03 12:56:17;;;;;;;6.90;6.43;;;29.40;99.90;;;;;;6270599;22;20351;-59
2022/09/03 12:59:18;;;;;;;6.73;6.33;;;29.80;99.90;;;;;;6272065;22;20362;-59
2022/09/03 13:01:51;;;;;;;6.57;6.17;;;30.70;99.90;;;;;;6207033;22;20395;-59
2022/09/03 13:04:25;;;;;;;6.60;6.30;;;31.20;99.90;;;;;;6271822;22;20450;-59
2022/09/03 13:06:59;;;;;;;7.53;7.13;;;31.20;99.90;;;;;;6271987;22;20364;-58
2022/09/03 13:09:28;;;;;;;6.53;6.23;;;31.60;99.90;;;;;;6270705;22;20422;-59
2022/09/03 13:11:55;;;;;;;6.77;6.47;;;31.30;99.90;;;;;;6272106;22;20493;-59
2022/09/03 13:14:21;;;;;;;6.83;6.33;;;30.30;99.90;;;;;;6272029;22;20378;-59
2022/09/03 13:17:10;;;;;;;7.13;6.73;;;29.80;99.90;;;;;;6270583;22;20799;-59
2022/09/03 13:20:19;;;;;;;6.43;6.13;;;29.50;99.90;;;;;;6271878;22;20375;-59